createdAt,value
2022-08-28T00:00:49.930Z,3.97
2022-08-28T00:05:51.492Z,3.75
2022-08-28T00:10:54.056Z,4.85
2022-08-28T00:16:00.725Z,3.53
2022-08-28T00:21:02.873Z,2.72
2022-08-28T00:26:04.555Z,3.75
2022-08-28T00:31:08.113Z,4.80
2022-08-28T00:36:11.297Z,3.65
2022-08-28T00:41:12.862Z,3.88
2022-08-28T00:46:23.651Z,4.00
2022-08-28T00:51:44.251Z,3.50
2022-08-28T00:56:47.595Z,3.92
2022-08-28T01:01:54.782Z,4.05
2022-08-28T01:06:57.998Z,3.25
2022-08-28T01:12:06.582Z,3.65
2022-08-28T01:17:09.828Z,3.92
2022-08-28T01:22:20.741Z,3.78
2022-08-28T01:27:23.986Z,3.88
2022-08-28T01:37:41.050Z,5.53
2022-08-28T01:42:43.961Z,3.50
2022-08-28T01:47:46.742Z,3.33
2022-08-28T01:52:48.561Z,3.85
2022-08-28T01:57:53.738Z,3.40
2022-08-28T02:02:57.309Z,3.45
2022-08-28T02:08:00.989Z,3.33
2022-08-28T02:13:05.115Z,3.93
2022-08-28T02:18:07.146Z,3.67
2022-08-28T02:23:09.809Z,4.13
2022-08-28T02:28:11.581Z,3.45
2022-08-28T02:33:13.310Z,4.40
2022-08-28T02:38:15.329Z,3.58
2022-08-28T02:43:17.389Z,3.67
2022-08-28T02:48:19.026Z,3.63
2022-08-28T02:53:22.547Z,4.22
2022-08-28T02:58:26.808Z,4.00
2022-08-28T03:03:31.074Z,4.63
2022-08-28T03:08:33.146Z,4.40
2022-08-28T03:13:35.356Z,3.95
2022-08-28T03:18:37.250Z,3.22
2022-08-28T03:23:39.040Z,3.78
2022-08-28T03:28:47.110Z,3.97
2022-08-28T03:33:50.289Z,4.20
2022-08-28T03:38:53.981Z,3.67
2022-08-28T03:43:57.387Z,3.67
2022-08-28T03:49:01.393Z,3.22
2022-08-28T03:54:04.440Z,3.60
2022-08-28T03:59:05.996Z,3.63
2022-08-28T04:04:07.605Z,3.67
2022-08-28T04:09:09.208Z,4.03
2022-08-28T04:14:11.795Z,3.45
2022-08-28T04:19:13.377Z,5.15
2022-08-28T04:24:14.971Z,3.50
2022-08-28T04:29:17.741Z,3.85
2022-08-28T04:34:19.495Z,3.45
2022-08-28T04:39:21.115Z,3.25
2022-08-28T04:44:22.713Z,3.45
2022-08-28T04:49:25.969Z,3.65
2022-08-28T04:54:27.792Z,3.42
2022-08-28T04:59:29.753Z,3.45
2022-08-28T05:04:31.357Z,3.22
2022-08-28T05:09:34.859Z,3.53
2022-08-28T05:14:36.666Z,3.87
2022-08-28T05:19:39.279Z,4.40
2022-08-28T05:24:40.817Z,3.17
2022-08-28T05:29:42.371Z,4.18
2022-08-28T05:34:43.908Z,3.83
2022-08-28T05:39:45.467Z,3.90
2022-08-28T05:44:47.072Z,4.25
2022-08-28T05:49:48.851Z,3.88
2022-08-28T05:54:53.863Z,3.28
2022-08-28T05:59:55.386Z,3.25
2022-08-28T06:04:57.781Z,3.10
2022-08-28T06:09:59.595Z,2.40
2022-08-28T06:15:01.225Z,2.88
2022-08-28T06:20:02.832Z,2.63
2022-08-28T06:25:08.138Z,2.83
2022-08-28T06:35:11.948Z,3.17
2022-08-28T06:40:14.138Z,3.33
2022-08-28T06:45:16.396Z,2.92
2022-08-28T06:50:17.959Z,3.28
2022-08-28T06:55:19.537Z,3.47
2022-08-28T07:00:21.198Z,2.75
2022-08-28T07:05:23.055Z,3.78
2022-08-28T07:10:24.814Z,3.25
2022-08-28T07:15:27.222Z,2.83
2022-08-28T07:20:28.797Z,2.30
2022-08-28T07:25:30.456Z,3.20
2022-08-28T07:30:32.027Z,2.80
2022-08-28T07:35:33.590Z,2.95
2022-08-28T07:40:35.201Z,3.17
2022-08-28T07:45:36.933Z,3.25
2022-08-28T07:50:38.511Z,3.60
2022-08-28T07:55:43.063Z,3.60
2022-08-28T08:00:45.089Z,2.92
2022-08-28T08:05:55.339Z,4.03
2022-08-28T08:11:03.232Z,3.45
2022-08-28T08:16:09.387Z,3.78
2022-08-28T08:21:14.011Z,3.72
2022-08-28T08:26:21.569Z,3.35
2022-08-28T08:31:33.697Z,3.10
2022-08-28T08:36:38.404Z,2.80
2022-08-28T08:41:48.021Z,3.70
2022-08-28T08:46:58.666Z,3.10
2022-08-28T08:52:06.706Z,3.22
2022-08-28T08:57:14.701Z,3.17
2022-08-28T09:02:31.273Z,3.33
2022-08-28T09:07:53.191Z,2.65
2022-08-28T09:13:04.974Z,2.78
2022-08-28T09:18:22.389Z,3.60
2022-08-28T09:23:25.414Z,3.30
2022-08-28T09:28:31.391Z,3.83
2022-08-28T09:33:41.636Z,3.22
2022-08-28T09:38:43.453Z,3.13
2022-08-28T09:43:46.683Z,3.22
2022-08-28T09:48:52.426Z,3.55
2022-08-28T09:53:54.555Z,3.05
2022-08-28T09:59:08.452Z,3.20
2022-08-28T10:04:20.751Z,2.72
2022-08-28T10:09:47.780Z,3.58
2022-08-28T10:15:04.851Z,2.67
2022-08-28T10:20:44.975Z,2.95
2022-08-28T10:25:54.756Z,2.92
2022-08-28T10:31:05.586Z,3.20
2022-08-28T10:36:33.998Z,2.90
2022-08-28T10:41:58.234Z,3.22
2022-08-28T10:47:01.603Z,3.55
2022-08-28T10:52:41.848Z,3.70
2022-08-28T10:57:53.060Z,2.97
2022-08-28T11:02:58.217Z,3.40
2022-08-28T11:08:05.218Z,3.00
2022-08-28T11:13:10.092Z,2.92
2022-08-28T11:18:11.668Z,3.53
2022-08-28T11:23:17.372Z,3.42
2022-08-28T11:28:26.077Z,3.28
2022-08-28T11:33:41.421Z,3.25
2022-08-28T11:38:43.383Z,3.13
2022-08-28T11:43:47.219Z,3.30
2022-08-28T11:48:54.694Z,3.37
2022-08-28T11:54:43.914Z,3.67
2022-08-28T11:59:57.741Z,3.17
2022-08-28T12:04:59.413Z,3.20
2022-08-28T12:10:04.952Z,3.25
2022-08-28T12:15:08.692Z,2.95
2022-08-28T12:20:19.292Z,2.30
2022-08-28T12:25:35.249Z,2.70
2022-08-28T12:30:44.413Z,3.28
2022-08-28T12:35:46.157Z,2.78
2022-08-28T12:40:52.936Z,2.85
2022-08-28T12:45:57.666Z,2.83
2022-08-28T12:51:14.205Z,2.78
2022-08-28T12:56:19.292Z,2.78
2022-08-28T13:01:31.339Z,2.70
2022-08-28T13:06:36.569Z,2.78
2022-08-28T13:11:40.133Z,3.08
2022-08-28T13:21:46.181Z,3.20
2022-08-28T13:26:50.749Z,2.45
2022-08-28T13:31:59.430Z,3.05
2022-08-28T13:37:04.191Z,2.60
2022-08-28T13:42:15.891Z,3.22
2022-08-28T13:47:17.790Z,2.88
2022-08-28T13:52:19.356Z,2.72
2022-08-28T13:57:21.545Z,3.00
2022-08-28T14:02:41.665Z,3.17
2022-08-28T14:07:44.073Z,3.25
2022-08-28T14:12:47.700Z,2.63
2022-08-28T14:17:49.264Z,2.33
2022-08-28T14:22:50.943Z,2.75
2022-08-28T14:27:52.570Z,2.35
2022-08-28T14:32:54.720Z,2.97
2022-08-28T14:37:56.370Z,2.53
2022-08-28T14:42:57.931Z,2.72
2022-08-28T14:47:59.703Z,3.05
2022-08-28T14:53:01.890Z,3.03
2022-08-28T14:58:03.453Z,2.95
2022-08-28T15:03:05.255Z,3.00
2022-08-28T15:08:09.468Z,2.80
2022-08-28T15:13:12.650Z,2.95
2022-08-28T15:18:14.525Z,2.75
2022-08-28T15:23:16.321Z,3.47
2022-08-28T15:28:18.987Z,3.05
2022-08-28T15:33:20.532Z,3.10
2022-08-28T15:38:22.747Z,2.90
2022-08-28T15:43:24.325Z,3.03
2022-08-28T15:48:25.939Z,3.20
2022-08-28T15:53:27.492Z,2.55
2022-08-28T15:58:31.339Z,3.42
2022-08-28T16:08:34.453Z,2.95
2022-08-28T16:13:36.211Z,3.35
2022-08-28T16:18:37.843Z,4.18
2022-08-28T16:23:40.099Z,3.17
2022-08-28T16:28:43.630Z,3.38
2022-08-28T16:33:45.271Z,3.63
2022-08-28T16:38:49.367Z,3.30
2022-08-28T16:44:01.350Z,4.88
2022-08-28T16:49:03.048Z,3.83
2022-08-28T16:54:04.651Z,3.33
2022-08-28T16:59:10.440Z,4.00
2022-08-28T17:04:12.265Z,3.83
2022-08-28T17:09:13.923Z,4.28
2022-08-28T17:14:15.514Z,3.42
2022-08-28T17:19:17.837Z,3.28
2022-08-28T17:24:19.614Z,3.97
2022-08-28T17:29:21.261Z,4.05
2022-08-28T17:34:25.763Z,3.95
2022-08-28T17:39:31.358Z,4.40
2022-08-28T17:44:33.310Z,3.38
2022-08-28T17:49:34.979Z,3.33
2022-08-28T17:54:36.615Z,3.53
2022-08-28T17:59:38.284Z,4.22
2022-08-28T18:04:39.868Z,3.13
2022-08-28T18:09:41.644Z,4.13
2022-08-28T18:14:43.412Z,3.17
2022-08-28T18:19:45.074Z,3.60
2022-08-28T18:24:52.478Z,4.60
2022-08-28T18:29:54.427Z,3.85
2022-08-28T18:34:56.064Z,3.88
2022-08-28T18:39:57.642Z,3.97
2022-08-28T18:45:01.647Z,4.85
2022-08-28T18:50:05.420Z,4.07
2022-08-28T18:55:08.555Z,5.53
2022-08-28T19:00:10.998Z,4.57
2022-08-28T19:05:13.312Z,4.70
2022-08-28T19:10:32.017Z,5.38
2022-08-28T19:15:35.696Z,5.10
2022-08-28T19:20:37.688Z,4.90
2022-08-28T19:25:39.243Z,5.00
2022-08-28T19:30:40.857Z,4.95
2022-08-28T19:35:42.789Z,5.32
2022-08-28T19:40:45.449Z,5.50
2022-08-28T19:45:47.220Z,5.32
2022-08-28T19:50:48.918Z,5.68
2022-08-28T19:55:51.813Z,6.40
2022-08-28T20:00:53.369Z,4.97
2022-08-28T20:05:55.739Z,5.28
2022-08-28T20:10:57.802Z,6.55
2022-08-28T20:16:04.889Z,6.10
2022-08-28T20:21:10.944Z,6.15
2022-08-28T20:26:13.530Z,6.00
2022-08-28T20:31:17.869Z,6.32
2022-08-28T20:36:21.210Z,6.18
2022-08-28T20:41:24.099Z,6.75
2022-08-28T20:46:25.755Z,6.47
2022-08-28T20:51:46.236Z,5.93
2022-08-28T20:56:49.123Z,5.22
2022-08-28T21:01:51.487Z,5.88
2022-08-28T21:06:53.074Z,5.97
2022-08-28T21:11:54.724Z,6.15
2022-08-28T21:16:57.436Z,5.93
2022-08-28T21:21:59.528Z,6.03
2022-08-28T21:27:02.231Z,7.72
2022-08-28T21:32:04.344Z,5.85
2022-08-28T21:37:06.420Z,7.20
2022-08-28T21:42:08.066Z,6.60
2022-08-28T21:47:09.671Z,5.82
2022-08-28T21:52:11.431Z,6.20
2022-08-28T21:57:12.990Z,5.68
2022-08-28T22:02:14.590Z,6.97
2022-08-28T22:07:17.768Z,6.05
2022-08-28T22:12:19.645Z,6.07
2022-08-28T22:17:21.408Z,6.38
2022-08-28T22:22:41.377Z,6.30
2022-08-28T22:27:43.000Z,6.03
2022-08-28T22:32:45.300Z,5.82
2022-08-28T22:37:47.179Z,6.00
2022-08-28T22:42:50.434Z,6.05
2022-08-28T22:47:52.803Z,6.47
2022-08-28T22:52:54.477Z,6.10
2022-08-28T22:57:56.090Z,6.57
2022-08-28T23:02:58.235Z,6.72
2022-08-28T23:07:59.781Z,6.65
2022-08-28T23:13:01.318Z,5.60
2022-08-28T23:18:02.972Z,6.60
2022-08-28T23:23:05.816Z,5.88
2022-08-28T23:28:07.570Z,7.18
2022-08-28T23:33:09.272Z,6.95
2022-08-28T23:38:10.953Z,6.57
2022-08-28T23:43:15.466Z,6.18
2022-08-28T23:48:17.747Z,6.45
2022-08-28T23:53:19.556Z,6.55
2022-08-28T23:58:22.519Z,6.72
